Time;durP1;ratioP1;P1;durP2;ratioP2;P2;SDS_P1;SDS_P2;PMS_P1;PMS_P2;Temp;Humidity;BMP_temperature;BMP_pressure;BME280_temperature;BME280_humidity;BME280_pressure;Samples;Min_cycle;Max_cycle;Signal;HPM_P1;HPM_P2
2022/09/06 00:00:25;;;;;;;6.18;4.05;;;;;;;18.82;58.32;95877.53;5113890;28;20073;-87
2022/09/06 00:02:51;;;;;;;8.82;4.22;;;;;;;18.55;58.22;95837.34;5114609;28;20063;-87
2022/09/06 00:05:17;;;;;;;7.32;3.50;;;;;;;18.92;57.78;95875.69;5095855;28;20073;-87
2022/09/06 00:07:42;;;;;;;5.38;4.28;;;;;;;16.64;58.30;95532.47;5083980;28;20133;-88
2022/09/06 00:10:09;;;;;;;8.68;4.05;;;;;;;18.59;58.20;95848.31;5075982;28;20038;-87
2022/09/06 00:12:34;;;;;;;7.57;4.15;;;;;;;18.74;58.61;95885.53;5075997;28;20494;-88
2022/09/06 00:15:00;;;;;;;8.18;4.50;;;;;;;18.78;57.81;95883.81;5076348;28;20039;-88
2022/09/06 00:17:25;;;;;;;6.15;4.05;;;;;;;18.60;57.61;95842.66;5076531;28;20505;-88
2022/09/06 00:19:51;;;;;;;7.28;4.22;;;;;;;18.93;57.36;95907.59;5094212;28;20035;-88
2022/09/06 00:22:16;;;;;;;5.78;3.47;;;;;;;18.56;57.23;95835.47;5094779;28;20059;-88
2022/09/06 00:24:41;;;;;;;6.85;4.18;;;;;;;18.66;57.30;95854.84;5075933;28;20036;-87
2022/09/06 00:27:08;;;;;;;8.50;4.13;;;;;;;19.11;57.12;95925.44;5076247;28;20035;-87
2022/09/06 00:29:34;;;;;;;9.77;3.95;;;;;;;18.47;57.04;95832.72;5076396;28;20032;-88
2022/09/06 00:31:59;;;;;;;10.50;3.83;;;;;;;18.80;56.88;95865.50;5075862;28;20058;-88
2022/09/06 00:34:25;;;;;;;4.90;3.92;;;;;;;18.96;56.68;95890.88;5075872;28;20455;-88
2022/09/06 00:36:51;;;;;;;4.78;3.45;;;;;;;18.87;56.87;95868.53;5093651;28;20089;-88
2022/09/06 00:39:16;;;;;;;7.00;3.65;;;;;;;18.53;56.67;95818.09;5075909;28;20040;-88
2022/09/06 00:41:42;;;;;;;4.97;3.45;;;;;;;19.17;56.68;95916.13;5077333;28;20039;-87
2022/09/06 00:44:07;;;;;;;5.20;4.28;;;;;;;18.89;56.70;95879.78;5076818;28;20096;-88
2022/09/06 00:46:35;;;;;;;5.55;4.07;;;;;;;17.08;56.92;95596.81;5075752;28;20040;-88
2022/09/06 00:49:05;;;;;;;9.18;4.03;;;;;;;18.76;56.99;95843.06;5075273;28;20032;-88
2022/09/06 00:51:33;;;;;;;8.15;4.13;;;;;;;16.85;57.17;95571.09;5089663;28;20036;-88
2022/09/06 00:54:02;;;;;;;4.80;3.63;;;;;;;17.27;56.94;95644.88;5097278;28;20064;-88
2022/09/06 00:56:30;;;;;;;9.80;4.00;;;;;;;18.06;57.03;95752.44;5079672;28;20104;-88
2022/09/06 00:58:56;;;;;;;7.28;4.00;;;;;;;18.72;57.15;95858.97;5079786;28;20461;-87
2022/09/06 01:01:21;;;;;;;8.43;4.45;;;;;;;18.14;57.08;95770.47;5079382;28;20039;-87
2022/09/06 01:03:47;;;;;;;10.48;4.10;;;;;;;17.90;56.85;95743.94;5099703;28;20569;-87
2022/09/06 01:06:16;;;;;;;10.93;4.00;;;;;;;19.04;56.75;95913.53;5081102;28;20063;-87
2022/09/06 01:09:01;;;;;;;9.85;4.30;;;;;;;18.42;56.79;95827.50;5079967;28;20137;-88
2022/09/06 01:12:01;;;;;;;9.13;3.90;;;;;;;18.94;57.14;95909.19;5071349;28;20028;-87
2022/09/06 01:14:39;;;;;;;5.63;3.97;;;;;;;16.78;56.91;95571.50;5079053;28;20086;-87
2022/09/06 01:17:32;;;;;;;8.48;4.05;;;;;;;19.00;57.07;95913.34;5079197;28;20036;-87
2022/09/06 01:20:22;;;;;;;5.43;3.28;;;;;;;19.03;57.15;95910.03;5098001;28;20036;-87
2022/09/06 01:23:27;;;;;;;9.20;4.22;;;;;;;18.94;57.48;95909.19;5078983;28;20417;-88
2022/09/06 01:26:01;;;;;;;6.25;4.03;;;;;;;18.92;57.62;95908.72;5097737;28;20039;-88
2022/09/06 01:28:41;;;;;;;5.97;3.22;;;;;;;18.47;57.93;95846.16;5079262;28;20039;-88
2022/09/06 01:31:26;;;;;;;13.93;3.53;;;;;;;18.53;57.73;95847.63;5078310;28;20047;-88
2022/09/06 01:33:57;;;;;;;6.10;3.50;;;;;;;18.88;57.78;95905.84;5078553;28;20080;-87
2022/09/06 01:36:27;;;;;;;6.75;3.65;;;;;;;18.35;57.86;95835.97;5079124;28;20044;-88
2022/09/06 01:38:53;;;;;;;11.83;3.93;;;;;;;18.32;57.69;95833.91;5078278;28;20082;-88
2022/09/06 01:41:18;;;;;;;5.80;3.38;;;;;;;18.25;58.10;95838.91;5098495;28;20297;-88
2022/09/06 01:43:49;;;;;;;5.88;3.03;;;;;;;18.46;58.17;95852.66;5079183;28;20032;-88
2022/09/06 01:46:30;;;;;;;6.03;3.63;;;;;;;18.77;58.09;95892.97;5082134;28;20047;-88
2022/09/06 01:49:18;;;;;;;20.63;3.60;;;;;;;18.66;58.26;95886.28;5098524;28;20371;-88
2022/09/06 01:52:05;;;;;;;7.03;3.40;;;;;;;18.73;58.25;95874.00;5060034;28;20040;-88
2022/09/06 01:54:49;;;;;;;4.80;3.17;;;;;;;18.63;58.56;95879.63;5078652;28;20036;-88
2022/09/06 01:57:15;;;;;;;7.93;3.22;;;;;;;18.61;58.32;95875.69;5078466;28;20059;-88
2022/09/06 02:00:06;;;;;;;5.95;3.50;;;;;;;18.58;58.39;95884.34;5078430;28;20414;-88
2022/09/06 02:02:47;;;;;;;4.93;2.95;;;;;;;18.49;58.68;95885.03;5078452;28;20040;-88
2022/09/06 02:05:17;;;;;;;8.77;3.35;;;;;;;18.20;58.73;95857.84;5077921;28;20032;-88
2022/09/06 02:07:45;;;;;;;5.30;2.90;;;;;;;18.26;58.57;95845.88;5074152;28;20194;-88
2022/09/06 02:10:24;;;;;;;4.90;3.55;;;;;;;18.20;58.27;95828.31;5076353;28;20032;-87
2022/09/06 02:12:55;;;;;;;9.40;4.00;;;;;;;18.02;58.41;95795.16;5078432;28;20127;-87
2022/09/06 02:15:26;;;;;;;11.93;3.22;;;;;;;18.58;58.34;95876.28;5078231;28;20413;-88
2022/09/06 02:18:01;;;;;;;6.00;3.47;;;;;;;18.03;58.43;95795.97;5096959;28;20044;-88
2022/09/06 02:20:34;;;;;;;7.78;3.08;;;;;;;18.40;58.71;95856.53;5078354;28;20105;-88
2022/09/06 02:23:04;;;;;;;8.00;3.50;;;;;;;18.53;58.54;95885.25;5078302;28;20044;-88
2022/09/06 02:25:41;;;;;;;7.13;3.90;;;;;;;18.43;58.52;95866.69;5078323;28;20052;-88
2022/09/06 02:28:08;;;;;;;5.07;3.38;;;;;;;16.69;58.55;95604.66;5078747;28;20278;-87
2022/09/06 02:30:38;;;;;;;9.65;4.18;;;;;;;18.11;58.82;95833.59;5077509;28;20039;-88
2022/09/06 02:33:11;;;;;;;5.13;3.95;;;;;;;16.73;58.80;95611.00;5077755;28;20036;-88
2022/09/06 02:35:46;;;;;;;10.80;3.92;;;;;;;17.83;58.24;95777.69;5078271;28;20105;-87
2022/09/06 02:38:12;;;;;;;10.27;3.90;;;;;;;18.34;58.83;95865.81;5079583;28;20035;-87
2022/09/06 02:40:38;;;;;;;16.40;3.97;;;;;;;16.38;59.05;95586.56;5077286;28;20581;-88
2022/09/06 02:43:04;;;;;;;7.25;3.83;;;;;;;18.13;59.28;95844.84;5077711;28;20016;-87
2022/09/06 02:45:29;;;;;;;11.15;3.97;;;;;;;18.26;59.48;95867.34;5077512;28;20035;-87
2022/09/06 02:47:54;;;;;;;7.38;4.00;;;;;;;17.55;59.49;95764.31;5077697;28;20028;-88
2022/09/06 02:50:20;;;;;;;13.32;4.22;;;;;;;18.16;59.56;95851.47;5077728;28;20036;-87
2022/09/06 02:52:45;;;;;;;6.20;3.80;;;;;;;18.40;59.05;95894.13;5095779;28;20081;-88
2022/09/06 02:55:11;;;;;;;10.60;4.28;;;;;;;18.16;59.76;95878.31;5078138;28;20023;-88
2022/09/06 02:57:36;;;;;;;9.35;4.25;;;;;;;18.16;59.73;95872.94;5077966;28;20027;-87
2022/09/06 03:00:03;;;;;;;9.07;3.90;;;;;;;17.61;59.55;95781.94;5077894;28;20028;-87
2022/09/06 03:02:29;;;;;;;8.38;4.72;;;;;;;17.94;59.69;95848.78;5095575;28;20028;-87
2022/09/06 03:04:54;;;;;;;12.52;3.97;;;;;;;18.25;59.75;95889.91;5077084;28;20032;-87
2022/09/06 03:07:20;;;;;;;5.45;3.13;;;;;;;17.62;60.09;95799.59;5076140;28;20103;-87
2022/09/06 03:09:45;;;;;;;6.88;3.88;;;;;;;16.31;60.06;95596.06;5095777;28;20513;-87
2022/09/06 03:12:11;;;;;;;10.23;4.55;;;;;;;17.71;60.61;95837.22;5077015;28;20459;-87
2022/09/06 03:14:36;;;;;;;12.50;3.75;;;;;;;17.46;60.45;95801.00;5077173;28;20505;-87
2022/09/06 03:17:02;;;;;;;12.40;4.15;;;;;;;17.99;60.06;95888.94;5076945;28;20032;-87
2022/09/06 03:19:28;;;;;;;6.82;4.05;;;;;;;18.02;60.55;95888.31;5077191;28;20510;-88
2022/09/06 03:21:53;;;;;;;12.55;4.13;;;;;;;17.70;60.93;95881.22;5076785;28;20031;-88
2022/09/06 03:24:19;;;;;;;15.45;4.90;;;;;;;17.60;60.41;95822.44;5076483;28;20032;-88
2022/09/06 03:26:44;;;;;;;12.75;4.78;;;;;;;17.28;60.75;95788.53;5076790;28;20028;-88
2022/09/06 03:29:10;;;;;;;15.95;4.63;;;;;;;16.93;60.82;95750.66;5077284;28;20119;-87
2022/09/06 03:31:35;;;;;;;11.15;4.28;;;;;;;17.45;60.97;95820.06;5077197;28;20028;-88
2022/09/06 03:34:01;;;;;;;11.68;4.60;;;;;;;17.64;60.78;95859.09;5077202;28;20028;-88
2022/09/06 03:36:26;;;;;;;10.27;4.47;;;;;;;17.45;61.23;95834.28;5078325;28;20032;-88
2022/09/06 03:38:52;;;;;;;9.52;5.07;;;;;;;15.67;60.68;95555.06;5073667;28;20090;-88
2022/09/06 03:41:19;;;;;;;14.80;4.63;;;;;;;16.89;61.16;95765.75;5093166;28;20117;-88
2022/09/06 03:43:44;;;;;;;12.00;5.15;;;;;;;16.68;62.23;95802.06;5076959;28;20024;-88
2022/09/06 03:46:09;;;;;;;11.10;4.70;;;;;;;15.67;62.39;95620.00;5076118;28;20036;-88
2022/09/06 03:48:35;;;;;;;12.77;4.80;;;;;;;17.20;61.87;95853.56;5076137;28;20032;-88
2022/09/06 03:51:01;;;;;;;10.23;4.95;;;;;;;16.94;61.87;95813.84;5076085;28;20024;-88
2022/09/06 03:53:28;;;;;;;9.80;5.10;;;;;;;17.07;62.22;95832.94;5076851;28;20039;-88
2022/09/06 03:55:56;;;;;;;10.68;4.80;;;;;;;17.53;62.44;95913.22;5076454;28;20027;-88
2022/09/06 03:58:23;;;;;;;12.48;5.38;;;;;;;17.58;62.24;95913.91;5075987;28;20095;-88
2022/09/06 04:00:58;;;;;;;13.88;5.25;;;;;;;16.35;62.33;95729.00;5075343;28;20130;-88
2022/09/06 04:03:23;;;;;;;9.18;5.47;;;;;;;17.17;62.75;95872.91;5075787;28;20032;-87
2022/09/06 04:05:48;;;;;;;12.90;5.47;;;;;;;17.29;62.35;95875.91;5094807;28;20032;-87
2022/09/06 04:08:14;;;;;;;12.23;5.70;;;;;;;16.60;62.35;95775.94;5076233;28;20052;-88
2022/09/06 04:10:39;;;;;;;14.65;5.68;;;;;;;17.00;62.61;95851.28;5075945;28;20028;-87
2022/09/06 04:13:05;;;;;;;21.40;6.57;;;;;;;15.32;62.64;95602.69;5076488;28;20050;-87
2022/09/06 04:15:30;;;;;;;11.80;6.22;;;;;;;15.08;62.23;95545.91;5094480;28;20032;-86
2022/09/06 04:17:57;;;;;;;9.80;5.57;;;;;;;15.64;62.41;95635.88;5094276;28;20039;-88
2022/09/06 04:20:22;;;;;;;16.10;6.15;;;;;;;17.25;62.32;95904.38;5076163;28;20036;-87
2022/09/06 04:22:48;;;;;;;14.73;5.93;;;;;;;15.70;63.02;95672.91;5094258;28;20039;-87
2022/09/06 04:25:13;;;;;;;14.90;6.15;;;;;;;15.39;62.53;95595.09;5076274;28;20150;-88
2022/09/06 04:27:39;;;;;;;13.00;6.13;;;;;;;16.92;62.26;95828.66;5076026;28;20119;-87
2022/09/06 04:30:05;;;;;;;20.33;6.45;;;;;;;16.73;62.61;95836.75;5076083;28;20028;-87
2022/09/06 04:32:31;;;;;;;17.52;6.70;;;;;;;17.16;62.21;95904.31;5095227;28;20528;-88
2022/09/06 04:34:57;;;;;;;19.85;6.47;;;;;;;16.22;62.83;95772.59;5076834;28;20465;-88
2022/09/06 04:37:22;;;;;;;16.15;6.93;;;;;;;14.72;62.60;95544.91;5075733;28;20028;-87
2022/09/06 04:39:48;;;;;;;15.00;6.53;;;;;;;16.76;62.42;95840.75;5075634;28;20043;-87
2022/09/06 04:42:14;;;;;;;18.55;6.97;;;;;;;17.09;62.85;95921.88;5076060;28;20024;-88
2022/09/06 04:44:39;;;;;;;15.43;7.25;;;;;;;17.32;62.35;95926.22;5075836;28;20035;-88
2022/09/06 04:47:11;;;;;;;17.13;6.53;;;;;;;17.39;61.91;95918.59;5075854;28;20024;-87
2022/09/06 04:49:37;;;;;;;19.45;7.80;;;;;;;16.64;62.09;95801.03;5076266;28;20089;-88
2022/09/06 04:52:03;;;;;;;17.45;7.50;;;;;;;17.38;61.63;95900.13;5076039;28;20494;-87
2022/09/06 04:54:28;;;;;;;23.45;7.68;;;;;;;16.38;61.60;95724.94;5075133;28;20032;-88
2022/09/06 04:56:54;;;;;;;14.75;6.13;;;;;;;17.07;61.65;95824.88;5075593;28;20028;-87
2022/09/06 04:59:19;;;;;;;14.15;7.20;;;;;;;17.23;61.33;95861.00;5075484;28;20039;-88
2022/09/06 05:01:45;;;;;;;14.63;7.22;;;;;;;17.32;61.52;95884.13;5075039;28;20047;-88
2022/09/06 05:04:10;;;;;;;13.63;7.68;;;;;;;17.32;61.46;95867.25;5075975;28;20048;-87
2022/09/06 05:06:38;;;;;;;12.18;7.00;;;;;;;16.86;61.70;95811.88;5072287;28;20495;-88
2022/09/06 05:09:03;;;;;;;22.85;6.95;;;;;;;16.70;61.68;95783.81;5072430;28;20100;-88
2022/09/06 05:11:29;;;;;;;11.30;7.03;;;;;;;16.73;61.39;95783.19;5075423;28;20059;-88
2022/09/06 05:13:54;;;;;;;14.32;6.55;;;;;;;17.28;61.17;95855.53;5075285;28;20119;-88
2022/09/06 05:16:19;;;;;;;12.45;7.13;;;;;;;17.29;61.58;95857.13;5075793;28;20029;-87
2022/09/06 05:18:45;;;;;;;11.98;6.68;;;;;;;17.15;61.32;95822.31;5075191;28;20084;-87
2022/09/06 05:21:10;;;;;;;14.25;7.15;;;;;;;15.76;61.92;95631.63;5075423;28;20399;-88
2022/09/06 05:23:36;;;;;;;15.18;7.18;;;;;;;17.53;61.58;95914.03;5075957;28;20119;-88
2022/09/06 05:26:02;;;;;;;17.85;7.63;;;;;;;16.88;61.86;95804.34;5093849;28;20057;-88
2022/09/06 05:28:28;;;;;;;13.20;7.15;;;;;;;17.32;61.37;95845.78;5075377;28;20038;-88
2022/09/06 05:31:04;;;;;;;17.02;7.85;;;;;;;17.69;61.37;95890.41;5076650;28;20056;-88
2022/09/06 05:33:29;;;;;;;13.73;7.80;;;;;;;16.10;61.13;95654.53;5075965;28;20036;-87
2022/09/06 05:35:55;;;;;;;15.18;7.97;;;;;;;16.21;60.98;95642.56;5076771;28;20032;-88
2022/09/06 05:38:20;;;;;;;14.15;7.10;;;;;;;17.35;60.93;95826.44;5079292;28;20065;-88
2022/09/06 05:40:46;;;;;;;11.13;7.80;;;;;;;17.47;61.25;95864.25;5078560;28;20036;-88
2022/09/06 05:43:11;;;;;;;17.55;7.65;;;;;;;17.67;61.25;95893.38;5079102;28;20032;-88
2022/09/06 05:45:37;;;;;;;12.63;7.47;;;;;;;17.20;61.15;95813.34;5079364;28;20040;-88
2022/09/06 05:48:02;;;;;;;26.55;8.50;;;;;;;17.26;61.55;95830.91;5078227;28;20048;-88
2022/09/06 05:50:28;;;;;;;28.58;8.73;;;;;;;15.97;61.55;95601.81;5078503;28;20024;-88
2022/09/06 05:52:53;;;;;;;15.35;8.05;;;;;;;17.47;61.31;95829.38;5079624;28;20028;-88
2022/09/06 05:55:19;;;;;;;16.13;7.90;;;;;;;17.83;61.22;95872.38;5079093;28;20558;-88
2022/09/06 05:57:44;;;;;;;12.98;7.28;;;;;;;17.44;61.13;95810.44;5097224;28;20122;-88
2022/09/06 06:00:11;;;;;;;15.95;7.95;;;;;;;15.65;60.95;95525.13;5077937;28;20028;-88
2022/09/06 06:02:36;;;;;;;12.93;7.57;;;;;;;18.11;60.86;95899.91;5078337;28;20036;-88
2022/09/06 06:05:02;;;;;;;11.75;7.72;;;;;;;15.97;60.51;95564.38;5078147;28;20028;-88
2022/09/06 06:07:27;;;;;;;16.80;8.82;;;;;;;17.24;61.12;95800.97;5096131;28;20090;-88
2022/09/06 06:09:53;;;;;;;14.98;8.15;;;;;;;17.68;60.97;95852.03;5077605;28;20028;-88
2022/09/06 06:12:18;;;;;;;17.92;9.20;;;;;;;17.55;60.88;95820.63;5075625;28;20154;-88
2022/09/06 06:14:44;;;;;;;12.55;8.25;;;;;;;16.70;60.64;95681.25;5078368;28;20410;-88
2022/09/06 06:17:09;;;;;;;15.13;9.00;;;;;;;17.49;60.91;95821.84;5078039;28;20031;-88
2022/09/06 06:19:35;;;;;;;16.60;8.55;;;;;;;15.92;60.56;95562.59;5077833;28;20039;-88
2022/09/06 06:22:00;;;;;;;27.00;9.32;;;;;;;15.99;60.54;95552.28;5077991;28;20054;-88
2022/09/06 06:24:26;;;;;;;18.77;8.32;;;;;;;18.16;60.16;95897.09;5096793;28;20028;-88
2022/09/06 06:26:51;;;;;;;15.45;8.82;;;;;;;18.05;60.16;95864.34;5096519;28;20343;-88
2022/09/06 06:29:18;;;;;;;20.30;9.18;;;;;;;17.69;60.59;95804.56;5077459;28;20501;-88
2022/09/06 06:31:43;;;;;;;19.58;8.75;;;;;;;17.53;60.43;95769.22;5077551;28;20427;-88
2022/09/06 06:34:09;;;;;;;19.83;8.75;;;;;;;18.13;60.20;95852.09;5077661;28;20032;-88
2022/09/06 06:36:35;;;;;;;16.27;8.80;;;;;;;18.41;60.24;95877.72;5077700;28;20043;-87
2022/09/06 06:39:03;;;;;;;18.80;9.07;;;;;;;18.40;60.06;95861.91;5077675;28;20035;-87
2022/09/06 06:41:30;;;;;;;14.35;8.32;;;;;;;18.46;60.29;95880.28;5095441;28;20047;-87
2022/09/06 06:44:01;;;;;;;15.52;8.18;;;;;;;18.41;60.19;95852.75;5077174;28;20131;-87
2022/09/06 06:46:30;;;;;;;18.50;9.17;;;;;;;18.59;59.80;95880.56;5096252;28;20104;-87
2022/09/06 06:48:55;;;;;;;11.18;7.50;;;;;;;18.17;59.35;95804.75;5075982;28;20140;-88
2022/09/06 06:51:24;;;;;;;15.13;7.97;;;;;;;18.06;59.17;95788.09;5077684;28;20088;-88
2022/09/06 06:53:50;;;;;;;18.02;8.35;;;;;;;16.89;59.42;95639.03;5095720;28;20051;-88
2022/09/06 06:56:18;;;;;;;26.52;9.95;;;;;;;18.58;59.62;95887.81;5077115;28;20043;-87
2022/09/06 06:58:46;;;;;;;22.85;8.82;;;;;;;17.43;59.41;95701.59;5096436;28;20132;-87
2022/09/06 07:01:12;;;;;;;21.38;9.32;;;;;;;16.49;59.58;95568.38;5077532;28;20025;-88
2022/09/06 07:03:38;;;;;;;17.25;9.15;;;;;;;16.47;59.34;95533.09;5078302;28;20035;-87
2022/09/06 07:06:04;;;;;;;21.58;8.63;;;;;;;18.78;59.38;95897.25;5096016;28;20028;-87
2022/09/06 07:08:29;;;;;;;11.27;8.80;;;;;;;18.85;58.66;95889.53;5095254;28;20498;-87
2022/09/06 07:10:55;;;;;;;15.45;9.07;;;;;;;16.61;58.08;95536.56;5095715;28;20024;-88
2022/09/06 07:13:20;;;;;;;13.70;8.27;;;;;;;18.43;58.09;95807.59;5096175;28;20648;-88
2022/09/06 07:15:46;;;;;;;16.17;8.52;;;;;;;18.10;58.38;95764.13;5077550;28;20032;-88
2022/09/06 07:18:14;;;;;;;18.88;9.05;;;;;;;18.95;58.03;95891.97;5078930;28;20020;-88
2022/09/06 07:20:40;;;;;;;13.32;7.78;;;;;;;18.42;58.10;95803.31;5077831;28;20414;-88
2022/09/06 07:23:05;;;;;;;19.02;8.90;;;;;;;18.84;58.27;95867.25;5076216;28;20038;-87
2022/09/06 07:25:31;;;;;;;18.08;9.70;;;;;;;19.09;57.87;95897.25;5073079;28;20032;-87
2022/09/06 07:27:58;;;;;;;16.50;10.15;;;;;;;18.88;57.62;95848.63;5073137;28;20040;-88
2022/09/06 07:30:23;;;;;;;22.77;10.93;;;;;;;18.30;57.90;95747.50;5076461;28;20024;-88
2022/09/06 07:32:49;;;;;;;17.77;10.65;;;;;;;18.38;57.96;95762.88;5076670;28;20514;-88
2022/09/06 07:35:15;;;;;;;14.77;8.30;;;;;;;19.26;57.99;95897.34;5076955;28;20035;-88
2022/09/06 07:37:40;;;;;;;12.85;8.20;;;;;;;18.97;57.35;95838.72;5077086;28;20545;-88
2022/09/06 07:40:06;;;;;;;15.57;8.88;;;;;;;19.14;57.20;95856.81;5076699;28;20411;-88
2022/09/06 07:42:32;;;;;;;21.52;10.35;;;;;;;18.76;57.12;95808.91;5076882;28;20020;-88
2022/09/06 07:44:57;;;;;;;17.08;9.77;;;;;;;18.98;56.80;95826.84;5076908;28;20532;-88
2022/09/06 07:47:22;;;;;;;16.70;8.98;;;;;;;19.07;57.22;95835.72;5076876;28;20031;-88
2022/09/06 07:49:48;;;;;;;14.25;8.30;;;;;;;19.06;58.25;95842.22;5073472;28;20035;-87
2022/09/06 07:52:13;;;;;;;13.27;8.45;;;;;;;18.72;57.04;95794.50;5074520;28;20032;-88
2022/09/06 07:54:39;;;;;;;19.00;8.50;;;;;;;18.59;57.34;95759.69;5076829;28;20105;-88
2022/09/06 07:57:04;;;;;;;15.65;8.45;;;;;;;18.68;56.00;95758.63;5076912;28;20024;-88
2022/09/06 07:59:30;;;;;;;15.25;8.27;;;;;;;19.27;55.81;95837.88;5095018;28;20393;-88
2022/09/06 08:01:55;;;;;;;13.68;8.23;;;;;;;17.21;56.10;95531.63;5076210;28;20119;-88
2022/09/06 08:04:21;;;;;;;15.75;8.77;;;;;;;18.82;56.12;95751.22;5076265;28;20571;-88
2022/09/06 08:06:49;;;;;;;17.83;9.35;;;;;;;18.07;55.73;95617.13;5077230;28;20048;-88
2022/09/06 08:09:15;;;;;;;14.57;8.18;;;;;;;19.05;56.40;95802.22;5077614;28;20043;-88
2022/09/06 08:11:40;;;;;;;15.85;8.15;;;;;;;19.47;57.46;95841.88;5097085;28;20024;-88
2022/09/06 08:14:07;;;;;;;14.10;7.80;;;;;;;19.78;56.43;95875.97;5076134;28;20077;-89
2022/09/06 08:16:34;;;;;;;14.55;7.53;;;;;;;19.11;55.67;95771.38;5075934;28;20113;-88
2022/09/06 08:19:03;;;;;;;20.40;7.25;;;;;;;19.81;55.11;95876.16;5076379;28;20038;-88
2022/09/06 08:21:33;;;;;;;14.63;7.55;;;;;;;19.88;54.76;95878.38;5094268;28;20039;-89
2022/09/06 08:24:01;;;;;;;16.10;7.72;;;;;;;19.78;54.96;95876.75;5094395;28;20525;-88
2022/09/06 08:26:28;;;;;;;11.95;6.32;;;;;;;19.87;54.39;95879.47;5075431;28;20063;-88
2022/09/06 08:28:59;;;;;;;16.58;6.85;;;;;;;20.02;54.07;95881.69;5075932;28;20042;-88
2022/09/06 08:31:26;;;;;;;13.65;7.53;;;;;;;19.65;54.43;95811.22;5094112;28;20032;-88
2022/09/06 08:33:52;;;;;;;10.32;6.30;;;;;;;19.89;55.71;95851.13;5094154;28;20442;-88
2022/09/06 08:36:17;;;;;;;14.63;8.05;;;;;;;18.10;56.03;95552.88;5076071;28;20039;-89
2022/09/06 08:38:44;;;;;;;12.70;7.35;;;;;;;18.98;56.41;95689.78;5075740;28;20119;-88
2022/09/06 08:41:13;;;;;;;14.15;6.35;;;;;;;20.20;54.63;95861.75;5075620;28;20043;-88
2022/09/06 08:43:45;;;;;;;8.88;6.65;;;;;;;20.21;55.30;95859.84;5076007;28;20036;-88
2022/09/06 08:46:11;;;;;;;12.45;6.35;;;;;;;19.65;54.02;95735.09;5074815;28;20036;-88
2022/09/06 08:48:38;;;;;;;10.73;6.80;;;;;;;19.70;52.97;95737.63;5075467;28;20047;-88
2022/09/06 08:51:10;;;;;;;12.38;8.02;;;;;;;19.86;52.87;95743.31;5075303;28;20032;-88
2022/09/06 08:53:38;;;;;;;;;;;;;;;20.44;52.67;95838.94;5075807;28;20391;-88
2022/09/06 08:56:18;;;;;;;8.75;6.35;;;;;;;19.49;52.33;95694.41;5075585;28;19916;-88
2022/09/06 08:59:03;;;;;;;8.15;6.03;;;;;;;20.57;52.43;95840.66;5077204;28;20032;-88
2022/09/06 09:01:51;;;;;;;12.02;6.20;;;;;;;20.35;53.81;95801.25;5075502;28;20040;-88
2022/09/06 09:04:21;;;;;;;12.95;5.55;;;;;;;19.72;52.94;95688.88;5077352;28;20038;-88
2022/09/06 09:06:53;;;;;;;9.52;5.28;;;;;;;19.08;51.37;95573.06;5089405;28;20438;-88
2022/09/06 09:09:18;;;;;;;6.47;5.20;;;;;;;20.78;51.85;95828.84;5092618;28;20116;-87
2022/09/06 09:11:48;;;;;;;6.90;5.20;;;;;;;18.78;51.57;95483.47;5078514;28;20059;-89
2022/09/06 09:14:26;;;;;;;8.60;4.50;;;;;;;20.34;50.78;95740.41;5079373;28;20498;-88
2022/09/06 09:17:03;;;;;;;6.13;4.03;;;;;;;18.33;51.31;95418.53;5079387;28;20047;-87
2022/09/06 09:19:35;;;;;;;7.13;4.72;;;;;;;20.47;50.25;95728.63;5097361;28;20406;-88
2022/09/06 09:22:01;;;;;;;7.30;4.65;;;;;;;20.46;51.84;95731.63;5078984;28;20520;-88
2022/09/06 09:24:26;;;;;;;8.52;4.93;;;;;;;19.33;51.39;95531.13;5079856;28;20032;-88
2022/09/06 09:27:10;;;;;;;7.20;4.97;;;;;;;19.55;49.37;95550.56;5080587;28;20028;-88
2022/09/06 09:29:53;;;;;;;6.05;5.25;;;;;;;21.08;50.19;95797.34;5081575;28;20062;-88
2022/09/06 09:32:38;;;;;;;10.52;5.32;;;;;;;21.14;52.05;95789.84;5080774;28;20471;-88
2022/09/06 09:35:22;;;;;;;7.43;5.57;;;;;;;20.99;51.17;95739.16;5097194;28;20107;-88
2022/09/06 09:37:58;;;;;;;7.07;5.20;;;;;;;21.24;49.50;95786.00;5079103;28;20530;-88
2022/09/06 09:40:23;;;;;;;7.35;5.68;;;;;;;21.35;49.25;95784.53;5097418;28;20036;-88
2022/09/06 09:42:49;;;;;;;6.78;5.05;;;;;;;20.59;49.22;95645.22;5079352;28;20109;-88
2022/09/06 09:45:27;;;;;;;10.13;6.93;;;;;;;21.18;50.27;95718.00;5079127;28;20024;-88
2022/09/06 09:47:54;;;;;;;11.98;6.47;;;;;;;21.28;49.53;95738.41;5078624;28;20035;-89
2022/09/06 09:50:28;;;;;;;7.88;6.20;;;;;;;21.40;50.18;95747.34;5079028;28;20032;-88
2022/09/06 09:52:53;;;;;;;9.45;7.28;;;;;;;21.71;49.35;95773.16;5079566;28;20098;-88
2022/09/06 09:55:24;;;;;;;11.32;6.43;;;;;;;21.71;48.80;95744.25;5079517;28;20498;-88
2022/09/06 09:57:53;;;;;;;10.68;6.05;;;;;;;22.19;47.31;95683.47;5097063;28;20047;-87
2022/09/06 10:00:38;;;;;;;13.52;5.65;;;;;;;23.43;44.39;95715.25;5085133;28;20107;-88
2022/09/06 10:03:15;;;;;;;7.65;5.07;;;;;;;24.76;41.65;95723.91;5092134;28;20027;-88
2022/09/06 10:05:42;;;;;;;7.75;5.35;;;;;;;25.32;40.33;95620.53;5094076;28;20043;-88
2022/09/06 10:08:11;;;;;;;10.13;5.72;;;;;;;26.50;37.84;95632.47;5093084;28;20055;-88
2022/09/06 10:10:45;;;;;;;9.20;4.85;;;;;;;26.40;35.90;95459.03;5090390;28;20040;-88
2022/09/06 10:13:25;;;;;;;9.18;4.72;;;;;;;28.92;33.14;95707.88;5086555;28;20031;-88
2022/09/06 10:15:52;;;;;;;8.60;4.43;;;;;;;29.51;31.90;95686.84;5082218;28;20451;-88
2022/09/06 10:18:30;;;;;;;4.40;3.95;;;;;;;30.49;29.70;95742.31;5079771;28;20490;-88
2022/09/06 10:21:21;;;;;;;4.28;3.83;;;;;;;31.25;28.92;95739.28;5079007;28;20123;-88
2022/09/06 10:23:52;;;;;;;;;;;;;;;31.72;27.76;95736.09;5078285;28;20513;-89
2022/09/06 10:26:31;;;;;;;6.68;4.15;;;;;;;31.63;26.89;95713.00;5067018;28;19926;-88
2022/09/06 10:29:10;;;;;;;6.25;3.60;;;;;;;31.81;26.65;95629.47;5071527;28;20033;-88
2022/09/06 10:32:09;;;;;;;4.68;3.47;;;;;;;32.53;25.19;95699.25;5074786;28;20132;-88
2022/09/06 10:35:03;;;;;;;5.18;3.67;;;;;;;32.26;24.85;95650.84;5043997;28;20434;-88
2022/09/06 10:37:47;;;;;;;6.53;4.07;;;;;;;32.41;23.76;95584.47;5073211;28;20085;-88
2022/09/06 10:40:33;;;;;;;8.57;5.00;;;;;;;33.63;24.53;95712.09;5072130;28;20482;-89
2022/09/06 10:43:00;;;;;;;5.90;2.95;;;;;;;33.47;21.73;95724.84;5070216;28;20037;-88
2022/09/06 10:45:53;;;;;;;2.20;1.90;;;;;;;33.54;21.83;95725.56;5074108;28;20035;-88
2022/09/06 10:48:40;;;;;;;3.45;2.25;;;;;;;32.42;21.61;95602.50;5072838;28;20465;-88
2022/09/06 10:51:30;;;;;;;4.47;2.83;;;;;;;33.51;21.96;95723.59;5070674;28;20042;-88
2022/09/06 10:54:09;;;;;;;6.03;3.10;;;;;;;33.19;22.68;95643.41;5069347;28;20098;-88
2022/09/06 10:56:40;;;;;;;8.93;3.20;;;;;;;34.05;22.50;95712.81;5073557;28;20080;-88
2022/09/06 10:59:18;;;;;;;4.13;3.17;;;;;;;34.27;23.24;95711.38;5073160;28;20040;-88
2022/09/06 11:02:12;;;;;;;3.03;2.45;;;;;;;34.20;22.32;95680.38;5067291;28;20516;-88
2022/09/06 11:04:43;;;;;;;4.60;3.30;;;;;;;34.23;21.63;95650.09;5066505;28;20048;-88
2022/09/06 11:07:25;;;;;;;3.22;2.40;;;;;;;33.87;21.04;95603.00;5077791;28;20066;-88
2022/09/06 11:09:56;;;;;;;2.92;2.53;;;;;;;33.22;20.53;95507.97;5089172;28;20039;-88
2022/09/06 11:12:36;;;;;;;2.10;1.85;;;;;;;32.02;20.58;95343.31;5093671;28;20032;-88
2022/09/06 11:15:05;;;;;;;2.15;1.80;;;;;;;33.64;20.61;95664.13;5089370;28;20035;-88
2022/09/06 11:17:39;;;;;;;3.95;1.80;;;;;;;32.33;21.44;95477.88;5093142;28;20047;-88
2022/09/06 11:20:28;;;;;;;3.58;2.40;;;;;;;33.97;21.40;95670.84;5093327;28;20039;-88
2022/09/06 11:23:19;;;;;;;2.90;2.35;;;;;;;34.10;21.07;95695.84;5095015;28;20052;-87
2022/09/06 11:26:16;;;;;;;3.13;2.30;;;;;;;33.60;21.01;95605.66;5087591;28;20109;-88
2022/09/06 11:28:51;;;;;;;5.25;2.67;;;;;;;34.14;21.09;95599.47;5094974;28;20040;-88
2022/09/06 11:31:26;;;;;;;5.15;2.38;;;;;;;34.65;21.05;95645.91;5091302;28;20109;-88
2022/09/06 11:34:09;;;;;;;2.03;1.83;;;;;;;34.40;20.93;95593.22;5087207;28;20047;-88
2022/09/06 11:36:45;;;;;;;2.25;1.90;;;;;;;34.88;21.48;95691.22;5092761;28;20461;-88
2022/09/06 11:39:11;;;;;;;1.95;1.85;;;;;;;34.34;20.95;95622.38;5094280;28;20354;-88
2022/09/06 11:41:40;;;;;;;3.47;2.00;;;;;;;34.59;21.04;95657.81;5085525;28;20046;-88